createdAt,value
2022-07-25T00:01:44.014Z,100285.19
2022-07-25T00:04:12.498Z,100282.25
2022-07-25T00:06:39.985Z,100269.75
2022-07-25T00:09:06.793Z,100269.03
2022-07-25T00:11:33.573Z,100260.97
2022-07-25T00:14:00.406Z,100256.41
2022-07-25T00:16:27.174Z,100260.59
2022-07-25T00:18:53.987Z,100249.88
2022-07-25T00:21:20.671Z,100252.16
2022-07-25T00:23:47.304Z,100239.06
2022-07-25T00:26:14.448Z,100233.00
2022-07-25T00:28:41.087Z,100231.50
2022-07-25T00:31:07.794Z,100233.72
2022-07-25T00:33:34.562Z,100235.88
2022-07-25T00:36:01.255Z,100242.13
2022-07-25T00:38:28.054Z,100236.41
2022-07-25T00:40:55.660Z,100234.81
2022-07-25T00:43:22.707Z,100235.09
2022-07-25T00:45:49.340Z,100225.16
2022-07-25T00:48:16.173Z,100218.66
2022-07-25T00:50:43.054Z,100229.50
2022-07-25T00:53:09.751Z,100226.97
2022-07-25T00:55:36.717Z,100224.91
2022-07-25T00:58:03.419Z,100217.75
2022-07-25T01:00:30.075Z,100221.31
2022-07-25T01:02:57.483Z,100212.81
2022-07-25T01:05:24.304Z,100212.19
2022-07-25T01:07:52.050Z,100216.06
2022-07-25T01:10:18.848Z,100214.94
2022-07-25T01:12:50.035Z,100218.44
2022-07-25T01:15:19.104Z,100211.69
2022-07-25T01:17:45.950Z,100210.53
2022-07-25T01:20:20.645Z,100211.28
2022-07-25T01:22:48.256Z,100205.66
2022-07-25T01:25:16.241Z,100215.16
2022-07-25T01:27:44.034Z,100209.66
2022-07-25T01:30:13.813Z,100209.88
2022-07-25T01:32:41.234Z,100212.47
2022-07-25T01:35:08.896Z,100205.34
2022-07-25T01:37:36.249Z,100199.13
2022-07-25T01:40:04.856Z,100202.47
2022-07-25T01:42:31.576Z,100199.66
2022-07-25T01:44:58.266Z,100196.75
2022-07-25T01:47:25.110Z,100194.44
2022-07-25T01:49:52.143Z,100196.63
2022-07-25T01:52:19.027Z,100190.91
2022-07-25T01:54:45.676Z,100196.53
2022-07-25T01:57:14.114Z,100198.22
2022-07-25T01:59:41.070Z,100192.84
2022-07-25T02:02:09.167Z,100191.09
2022-07-25T02:04:36.503Z,100193.91
2022-07-25T02:07:06.191Z,100187.50
2022-07-25T02:09:34.181Z,100185.28
2022-07-25T02:12:00.888Z,100179.66
2022-07-25T02:14:27.689Z,100180.81
2022-07-25T02:16:54.615Z,100176.69
2022-07-25T02:19:21.360Z,100166.03
2022-07-25T02:21:48.001Z,100174.72
2022-07-25T02:24:14.959Z,100169.63
2022-07-25T02:26:41.863Z,100162.84
2022-07-25T02:29:08.537Z,100155.25
2022-07-25T02:31:35.295Z,100159.81
2022-07-25T02:34:02.232Z,100166.88
2022-07-25T02:36:29.255Z,100158.44
2022-07-25T02:38:55.906Z,100162.91
2022-07-25T02:41:22.644Z,100162.69
2022-07-25T02:43:49.289Z,100153.16
2022-07-25T02:46:16.093Z,100152.66
2022-07-25T02:48:42.917Z,100149.53
2022-07-25T02:51:09.554Z,100146.47
2022-07-25T02:53:55.981Z,100143.00
2022-07-25T02:56:22.877Z,100140.28
2022-07-25T02:58:50.213Z,100133.00
2022-07-25T03:01:16.994Z,100136.75
2022-07-25T03:03:43.840Z,100134.56
2022-07-25T03:06:10.719Z,100120.22
2022-07-25T03:08:37.616Z,100127.22
2022-07-25T03:11:04.753Z,100124.72
2022-07-25T03:13:33.036Z,100120.56
2022-07-25T03:15:59.892Z,100114.72
2022-07-25T03:18:26.506Z,100116.50
2022-07-25T03:20:53.106Z,100105.09
2022-07-25T03:23:19.690Z,100114.22
2022-07-25T03:25:46.500Z,100108.50
2022-07-25T03:28:13.102Z,100111.59
2022-07-25T03:30:39.664Z,100113.25
2022-07-25T03:33:06.284Z,100103.47
2022-07-25T03:35:32.875Z,100097.84
2022-07-25T03:38:01.921Z,100104.31
2022-07-25T03:40:28.750Z,100096.47
2022-07-25T03:42:55.455Z,100095.19
2022-07-25T03:45:22.190Z,100093.84
2022-07-25T03:47:48.835Z,100089.34
2022-07-25T03:50:15.812Z,100082.31
2022-07-25T03:52:42.435Z,100085.66
2022-07-25T03:55:10.964Z,100076.72
2022-07-25T03:57:38.668Z,100071.19
2022-07-25T04:00:07.295Z,100071.28
2022-07-25T04:02:33.963Z,100074.13
2022-07-25T04:05:00.710Z,100070.69
2022-07-25T04:07:27.299Z,100069.97
2022-07-25T04:09:53.908Z,100056.09
2022-07-25T04:12:20.491Z,100059.69
2022-07-25T04:14:47.190Z,100064.00
2022-07-25T04:17:14.704Z,100054.38
2022-07-25T04:19:41.556Z,100055.47
2022-07-25T04:22:08.435Z,100050.91
2022-07-25T04:24:35.164Z,100060.84
2022-07-25T04:27:01.927Z,100057.47
2022-07-25T04:29:29.082Z,100055.75
2022-07-25T04:31:55.764Z,100042.28
2022-07-25T04:34:22.434Z,100047.97
2022-07-25T04:36:49.063Z,100046.84
2022-07-25T04:39:15.670Z,100036.09
2022-07-25T04:41:42.261Z,100040.50
2022-07-25T04:44:09.380Z,100041.44
2022-07-25T04:46:36.428Z,100034.97
2022-07-25T04:49:03.267Z,100024.56
2022-07-25T04:51:29.948Z,100026.50
2022-07-25T04:53:56.556Z,100029.31
2022-07-25T04:56:23.171Z,100019.28
2022-07-25T04:58:49.856Z,100024.53
2022-07-25T05:01:16.540Z,100020.13
2022-07-25T05:03:50.051Z,100012.13
2022-07-25T05:06:17.859Z,100015.47
2022-07-25T05:08:44.453Z,100022.69
2022-07-25T05:11:11.111Z,100020.56
2022-07-25T05:13:37.702Z,100008.88
2022-07-25T05:16:04.737Z,100011.69
2022-07-25T05:18:31.816Z,100011.16
2022-07-25T05:20:58.448Z,100010.09
2022-07-25T05:23:25.041Z,100000.28
2022-07-25T05:25:51.732Z,99995.50
2022-07-25T05:28:18.400Z,99998.31
2022-07-25T05:30:45.096Z,100000.13
2022-07-25T05:33:11.719Z,100005.22
2022-07-25T05:35:38.329Z,100000.66
2022-07-25T05:38:05.065Z,99999.44
2022-07-25T05:40:31.728Z,99999.44
2022-07-25T05:43:02.963Z,100000.53
2022-07-25T05:45:31.063Z,99993.56
2022-07-25T05:47:57.741Z,99999.66
2022-07-25T05:50:24.483Z,100001.34
2022-07-25T05:52:51.419Z,99997.78
2022-07-25T05:55:18.250Z,99986.97
2022-07-25T05:57:45.009Z,99986.47
2022-07-25T06:00:12.562Z,99993.47
2022-07-25T06:02:39.324Z,100001.22
2022-07-25T06:05:06.274Z,99996.72
2022-07-25T06:07:32.853Z,99997.88
2022-07-25T06:09:59.513Z,99993.91
2022-07-25T06:12:26.086Z,99994.75
2022-07-25T06:14:53.054Z,99992.97
2022-07-25T06:17:20.226Z,99988.28
2022-07-25T06:19:46.991Z,99986.41
2022-07-25T06:22:13.742Z,99975.88
2022-07-25T06:24:42.012Z,99973.78
2022-07-25T06:27:08.891Z,99967.88
2022-07-25T06:29:35.619Z,99973.50
2022-07-25T06:32:02.343Z,99973.59
2022-07-25T06:34:29.328Z,99974.56
2022-07-25T06:36:57.492Z,99970.59
2022-07-25T06:39:25.388Z,99974.16
2022-07-25T06:41:52.136Z,99975.19
2022-07-25T06:44:18.974Z,99966.91
2022-07-25T06:46:45.621Z,99973.25
2022-07-25T06:49:12.512Z,99972.13
2022-07-25T06:51:39.169Z,99979.72
2022-07-25T06:54:07.092Z,99973.56
2022-07-25T06:56:34.089Z,99977.53
2022-07-25T06:59:00.812Z,99977.22
2022-07-25T07:01:27.648Z,99979.72
2022-07-25T07:03:54.485Z,99976.91
2022-07-25T07:06:21.282Z,99981.91
2022-07-25T07:08:48.108Z,99981.28
2022-07-25T07:11:15.302Z,99976.25
2022-07-25T07:13:42.397Z,99975.75
2022-07-25T07:16:09.343Z,99976.06
2022-07-25T07:18:37.015Z,99968.88
2022-07-25T07:21:04.843Z,99969.28
2022-07-25T07:23:33.032Z,99970.75
2022-07-25T07:26:00.279Z,99971.78
2022-07-25T07:28:27.088Z,99973.00
2022-07-25T07:33:40.502Z,99966.00
2022-07-25T07:36:07.416Z,99959.53
2022-07-25T07:38:34.466Z,99955.47
2022-07-25T07:41:01.195Z,99950.78
2022-07-25T07:43:30.564Z,99948.47
2022-07-25T07:46:00.733Z,99957.59
2022-07-25T07:48:31.815Z,99957.81
2022-07-25T07:51:00.190Z,99953.72
2022-07-25T07:53:47.406Z,99953.34
2022-07-25T07:56:15.794Z,99950.53
2022-07-25T07:58:43.067Z,99948.13
2022-07-25T08:01:09.725Z,99946.38
2022-07-25T08:03:36.318Z,99954.31
2022-07-25T08:06:04.121Z,99948.06
2022-07-25T08:08:31.722Z,99958.41
2022-07-25T08:10:59.358Z,99951.41
2022-07-25T08:13:30.461Z,99953.41
2022-07-25T08:15:59.387Z,99958.47
2022-07-25T08:18:32.471Z,99953.66
2022-07-25T08:21:02.882Z,99948.78
2022-07-25T08:23:31.803Z,99960.91
2022-07-25T08:25:59.287Z,99951.75
2022-07-25T08:28:26.602Z,99954.31
2022-07-25T08:30:53.510Z,99966.06
2022-07-25T08:33:20.425Z,99967.56
2022-07-25T08:35:49.125Z,99967.94
2022-07-25T08:38:15.979Z,99969.66
2022-07-25T08:40:42.690Z,99969.94
2022-07-25T08:43:14.070Z,99966.31
2022-07-25T08:45:49.365Z,99970.38
2022-07-25T08:48:21.752Z,99965.94
2022-07-25T08:50:49.716Z,99970.59
2022-07-25T08:53:35.266Z,99974.78
2022-07-25T08:56:12.584Z,99958.56
2022-07-25T08:58:43.917Z,99968.53
2022-07-25T09:01:12.559Z,99946.47
2022-07-25T09:03:40.222Z,99954.63
2022-07-25T09:06:21.658Z,99950.94
2022-07-25T09:08:52.273Z,99941.97
2022-07-25T09:11:36.061Z,99944.63
2022-07-25T09:14:08.535Z,99942.53
2022-07-25T09:16:40.227Z,99959.41
2022-07-25T09:19:18.307Z,99966.28
2022-07-25T09:21:57.089Z,99963.56
2022-07-25T09:24:23.851Z,99957.44
2022-07-25T09:26:53.337Z,99947.81
2022-07-25T09:29:25.865Z,99954.88
2022-07-25T09:31:54.626Z,99951.16
2022-07-25T09:34:42.163Z,99955.13
2022-07-25T09:37:14.578Z,99960.41
2022-07-25T09:39:47.474Z,99948.47
2022-07-25T09:42:23.536Z,99948.91
2022-07-25T09:45:12.481Z,99959.22
2022-07-25T09:47:59.668Z,99966.63
2022-07-25T09:50:28.593Z,99958.78
2022-07-25T09:53:00.819Z,99955.13
2022-07-25T09:55:28.914Z,99952.34
2022-07-25T09:57:55.621Z,99950.50
2022-07-25T10:00:27.193Z,99958.88
2022-07-25T10:03:39.074Z,99958.66
2022-07-25T10:06:22.102Z,99972.13
2022-07-25T10:08:49.643Z,99973.03
2022-07-25T10:11:25.512Z,99981.84
2022-07-25T10:13:53.651Z,99979.69
2022-07-25T10:16:27.463Z,99979.81
2022-07-25T10:18:57.288Z,99978.53
2022-07-25T10:21:27.706Z,99990.31
2022-07-25T10:24:10.648Z,99997.38
2022-07-25T10:26:39.986Z,99994.25
2022-07-25T10:29:11.043Z,99997.66
2022-07-25T10:31:49.317Z,99985.19
2022-07-25T10:34:27.504Z,99998.47
2022-07-25T10:36:57.416Z,100002.53
2022-07-25T10:39:24.334Z,100002.13
2022-07-25T10:42:00.271Z,100007.03
2022-07-25T10:44:39.070Z,100002.03
2022-07-25T10:47:06.863Z,99995.63
2022-07-25T10:49:50.194Z,99999.66
2022-07-25T10:52:30.067Z,100007.78
2022-07-25T10:55:01.445Z,100000.84
2022-07-25T10:57:31.906Z,100005.38
2022-07-25T11:00:09.061Z,100004.25
2022-07-25T11:02:36.190Z,99997.69
2022-07-25T11:05:04.341Z,99994.66
2022-07-25T11:07:35.948Z,99992.38
2022-07-25T11:10:05.850Z,99984.38
2022-07-25T11:12:33.301Z,99995.66
2022-07-25T11:15:02.473Z,99986.34
2022-07-25T11:17:29.744Z,99977.53
2022-07-25T11:20:01.979Z,99996.38
2022-07-25T11:22:30.287Z,99977.72
2022-07-25T11:24:57.718Z,99986.91
2022-07-25T11:27:33.598Z,99982.59
2022-07-25T11:30:14.143Z,99996.50
2022-07-25T11:32:58.448Z,100004.44
2022-07-25T11:35:27.999Z,99998.09
2022-07-25T11:37:55.315Z,100002.09
2022-07-25T11:40:22.796Z,100016.16
2022-07-25T11:42:51.994Z,100014.50
2022-07-25T11:45:26.814Z,100015.84
2022-07-25T11:48:05.031Z,100024.94
2022-07-25T11:50:34.435Z,100026.41
2022-07-25T11:53:03.532Z,100029.38
2022-07-25T11:55:33.281Z,100029.69
2022-07-25T11:58:01.967Z,100036.38
2022-07-25T12:00:29.920Z,100029.19
2022-07-25T12:03:07.781Z,100033.66
2022-07-25T12:05:34.705Z,100027.56
2022-07-25T12:08:09.052Z,100031.75
2022-07-25T12:10:36.548Z,100023.66
2022-07-25T12:13:04.413Z,100024.06
2022-07-25T12:15:35.591Z,100021.69
2022-07-25T12:18:03.053Z,100025.22
2022-07-25T12:20:32.303Z,100020.25
2022-07-25T12:23:06.449Z,100025.91
2022-07-25T12:25:35.463Z,100035.16
2022-07-25T12:28:02.044Z,100036.00
2022-07-25T12:30:30.018Z,100032.00
2022-07-25T12:32:58.425Z,100034.22
2022-07-25T12:35:26.015Z,100043.50
2022-07-25T12:37:53.064Z,100037.34
2022-07-25T12:40:20.745Z,100046.00
2022-07-25T12:42:48.722Z,100039.13
2022-07-25T12:45:17.704Z,100041.66
2022-07-25T12:47:45.867Z,100043.69
2022-07-25T12:50:13.650Z,100043.97
2022-07-25T12:52:41.041Z,100052.88
2022-07-25T12:55:10.079Z,100050.19
2022-07-25T12:57:37.588Z,100052.88
2022-07-25T13:00:10.712Z,100049.28
2022-07-25T13:02:38.031Z,100063.16
2022-07-25T13:05:05.425Z,100056.75
2022-07-25T13:07:33.280Z,100057.25
2022-07-25T13:10:00.786Z,100052.75
2022-07-25T13:12:27.629Z,100050.44
2022-07-25T13:14:54.314Z,100052.47
2022-07-25T13:17:25.094Z,100055.81
2022-07-25T13:19:54.307Z,100062.34
2022-07-25T13:22:21.012Z,100055.06
2022-07-25T13:24:47.634Z,100058.28
2022-07-25T13:27:14.266Z,100046.44
2022-07-25T13:29:40.988Z,100047.25
2022-07-25T13:32:10.328Z,100051.19
2022-07-25T13:34:37.041Z,100057.72
2022-07-25T13:37:04.496Z,100047.06
2022-07-25T13:39:31.445Z,100046.75
2022-07-25T13:41:58.029Z,100046.50
2022-07-25T13:44:24.664Z,100047.34
2022-07-25T13:46:51.436Z,100050.88
2022-07-25T13:49:18.460Z,100042.69
2022-07-25T13:51:45.523Z,100049.25
2022-07-25T13:54:12.862Z,100047.81
2022-07-25T13:56:41.269Z,100051.06
2022-07-25T13:59:08.475Z,100049.22
2022-07-25T14:01:35.685Z,100053.41
2022-07-25T14:04:02.395Z,100053.75
2022-07-25T14:06:29.077Z,100045.53
2022-07-25T14:08:55.782Z,100049.81
2022-07-25T14:11:24.891Z,100052.03
2022-07-25T14:13:55.950Z,100054.41
2022-07-25T14:16:22.595Z,100062.25
2022-07-25T14:18:49.537Z,100070.34
2022-07-25T14:21:16.660Z,100070.34
2022-07-25T14:23:43.405Z,100072.25
2022-07-25T14:26:10.041Z,100073.41
2022-07-25T14:28:36.721Z,100083.88
2022-07-25T14:31:03.346Z,100077.25
2022-07-25T14:33:30.090Z,100083.16
2022-07-25T14:35:56.885Z,100089.38
2022-07-25T14:38:23.741Z,100092.22
2022-07-25T14:40:51.596Z,100095.66
2022-07-25T14:43:18.390Z,100093.69
2022-07-25T14:45:45.146Z,100090.03
2022-07-25T14:48:11.972Z,100084.22
2022-07-25T14:50:38.672Z,100084.06
2022-07-25T14:53:05.492Z,100083.38
2022-07-25T14:55:32.325Z,100086.38
2022-07-25T14:58:02.384Z,100108.31
2022-07-25T15:00:29.985Z,100106.34
2022-07-25T15:02:57.061Z,100113.16
2022-07-25T15:05:23.700Z,100123.28
2022-07-25T15:07:50.920Z,100114.47
2022-07-25T15:10:17.773Z,100126.50
2022-07-25T15:12:44.799Z,100124.69
2022-07-25T15:15:11.707Z,100120.94
2022-07-25T15:17:39.676Z,100119.78
2022-07-25T15:20:07.221Z,100121.97
2022-07-25T15:22:33.959Z,100130.75
2022-07-25T15:27:47.263Z,100130.13
2022-07-25T15:30:13.941Z,100137.00
2022-07-25T15:32:40.694Z,100135.84
2022-07-25T15:35:08.296Z,100146.84
2022-07-25T15:37:35.310Z,100153.75
2022-07-25T15:40:02.303Z,100153.53
2022-07-25T15:42:29.623Z,100143.66
2022-07-25T15:45:22.259Z,100156.06
2022-07-25T15:47:47.492Z,100151.38
2022-07-25T15:50:18.498Z,100151.38
2022-07-25T15:52:45.575Z,100147.81
2022-07-25T15:55:12.644Z,100146.69
2022-07-25T15:57:39.382Z,100145.53
2022-07-25T16:00:08.523Z,100142.78
2022-07-25T16:02:35.753Z,100136.88
2022-07-25T16:05:04.167Z,100134.72
2022-07-25T16:07:30.839Z,100144.72
2022-07-25T16:09:57.608Z,100140.09
2022-07-25T16:12:28.797Z,100141.38
2022-07-25T16:14:55.827Z,100163.25
2022-07-25T16:17:23.096Z,100157.69
2022-07-25T16:19:49.979Z,100155.31
2022-07-25T16:22:16.933Z,100152.16
2022-07-25T16:24:43.807Z,100147.66
2022-07-25T16:27:10.525Z,100142.47
2022-07-25T16:29:37.845Z,100158.75
2022-07-25T16:32:05.728Z,100146.53
2022-07-25T16:34:33.178Z,100146.44
2022-07-25T16:37:01.538Z,100140.59
2022-07-25T16:39:28.669Z,100146.44
2022-07-25T16:41:56.308Z,100157.81
2022-07-25T16:44:26.165Z,100155.00
2022-07-25T16:46:54.299Z,100150.84
2022-07-25T16:49:21.531Z,100154.75
2022-07-25T16:51:48.201Z,100153.88
2022-07-25T16:54:14.906Z,100148.97
2022-07-25T16:56:41.924Z,100158.47
2022-07-25T16:59:09.473Z,100165.84
2022-07-25T17:01:37.266Z,100159.31
2022-07-25T17:04:04.600Z,100162.22
2022-07-25T17:06:31.534Z,100155.81
2022-07-25T17:08:58.619Z,100161.38
2022-07-25T17:11:25.472Z,100163.56
2022-07-25T17:13:52.227Z,100166.59
2022-07-25T17:16:18.985Z,100165.84
2022-07-25T17:18:45.744Z,100165.84
2022-07-25T17:21:15.148Z,100173.09
2022-07-25T17:23:41.897Z,100175.66
2022-07-25T17:26:08.501Z,100170.16
2022-07-25T17:28:35.475Z,100174.59
2022-07-25T17:31:02.174Z,100184.72
2022-07-25T17:33:28.891Z,100175.78
2022-07-25T17:35:55.548Z,100183.34
2022-07-25T17:38:26.301Z,100177.81
2022-07-25T17:40:54.403Z,100180.47
2022-07-25T17:43:21.057Z,100173.47
2022-07-25T17:45:47.903Z,100173.56
2022-07-25T17:48:15.259Z,100182.47
2022-07-25T17:50:42.001Z,100180.47
2022-07-25T17:53:08.644Z,100176.50
2022-07-25T17:55:38.783Z,100183.91
2022-07-25T17:58:06.107Z,100183.66
2022-07-25T18:00:32.723Z,100187.03
2022-07-25T18:03:00.147Z,100177.72
2022-07-25T18:05:27.641Z,100187.78
2022-07-25T18:07:54.505Z,100178.78
2022-07-25T18:10:22.003Z,100183.31
2022-07-25T18:12:49.968Z,100180.00
2022-07-25T18:15:17.310Z,100187.16
2022-07-25T18:17:46.052Z,100185.16
2022-07-25T18:20:15.207Z,100191.03
2022-07-25T18:22:42.079Z,100193.63
2022-07-25T18:25:11.407Z,100190.19
2022-07-25T18:27:40.638Z,100189.00
2022-07-25T18:30:07.996Z,100195.03
2022-07-25T18:32:35.335Z,100199.25
2022-07-25T18:35:02.338Z,100205.53
2022-07-25T18:37:29.017Z,100212.06
2022-07-25T18:39:55.654Z,100214.28
2022-07-25T18:42:26.319Z,100217.75
2022-07-25T18:44:56.370Z,100221.34
2022-07-25T18:47:25.943Z,100222.16
2022-07-25T18:49:53.634Z,100224.78
2022-07-25T18:52:21.824Z,100231.09
2022-07-25T18:54:49.072Z,100227.13
2022-07-25T18:57:16.148Z,100234.63
2022-07-25T18:59:43.258Z,100232.00
2022-07-25T19:02:10.400Z,100240.44
2022-07-25T19:04:37.704Z,100238.22
2022-07-25T19:07:04.346Z,100239.53
2022-07-25T19:09:31.041Z,100248.91
2022-07-25T19:11:57.777Z,100248.31
2022-07-25T19:14:26.069Z,100250.56
2022-07-25T19:16:53.814Z,100254.13
2022-07-25T19:19:20.558Z,100256.44
2022-07-25T19:21:47.430Z,100256.84
2022-07-25T19:24:14.506Z,100262.50
2022-07-25T19:26:41.569Z,100259.06
2022-07-25T19:29:09.539Z,100256.91
2022-07-25T19:31:38.063Z,100277.91
2022-07-25T19:34:05.988Z,100276.25
2022-07-25T19:36:33.376Z,100277.63
2022-07-25T19:39:01.027Z,100279.47
2022-07-25T19:41:28.041Z,100279.78
2022-07-25T19:43:54.783Z,100297.84
2022-07-25T19:46:21.476Z,100280.53
2022-07-25T19:48:48.502Z,100288.47
2022-07-25T19:51:15.420Z,100287.72
2022-07-25T19:53:42.172Z,100290.81
2022-07-25T19:56:09.136Z,100285.53
2022-07-25T19:58:38.942Z,100294.88
2022-07-25T20:01:07.952Z,100296.66
2022-07-25T20:03:35.033Z,100290.13
2022-07-25T20:06:07.569Z,100296.31
2022-07-25T20:08:35.775Z,100299.44
2022-07-25T20:11:02.447Z,100299.13
2022-07-25T20:13:29.618Z,100305.44
2022-07-25T20:15:57.178Z,100298.75
2022-07-25T20:18:23.989Z,100306.34
2022-07-25T20:20:51.000Z,100303.13
2022-07-25T20:23:17.672Z,100309.97
2022-07-25T20:25:44.451Z,100308.63
2022-07-25T20:28:11.289Z,100313.41
2022-07-25T20:30:38.120Z,100305.63
2022-07-25T20:33:09.558Z,100298.16
2022-07-25T20:35:37.750Z,100295.03
2022-07-25T20:38:09.168Z,100293.97
2022-07-25T20:40:40.489Z,100297.94
2022-07-25T20:43:09.878Z,100299.84
2022-07-25T20:45:36.850Z,100299.53
2022-07-25T20:48:04.418Z,100303.19
2022-07-25T20:50:31.497Z,100305.41
2022-07-25T20:52:58.244Z,100304.28
2022-07-25T20:55:24.882Z,100307.13
2022-07-25T20:57:51.497Z,100303.19
2022-07-25T21:00:18.201Z,100313.59
2022-07-25T21:02:45.034Z,100307.50
2022-07-25T21:05:11.785Z,100308.28
2022-07-25T21:07:38.519Z,100311.34
2022-07-25T21:10:05.601Z,100308.59
2022-07-25T21:12:33.162Z,100319.25
2022-07-25T21:15:01.320Z,100319.00
2022-07-25T21:17:28.417Z,100326.31
2022-07-25T21:19:55.164Z,100326.09
2022-07-25T21:22:21.809Z,100326.09
2022-07-25T21:24:49.497Z,100336.84
2022-07-25T21:27:17.607Z,100333.47
2022-07-25T21:29:44.619Z,100343.00
2022-07-25T21:32:15.150Z,100357.06
2022-07-25T21:34:43.750Z,100340.81
2022-07-25T21:37:10.401Z,100346.13
2022-07-25T21:39:37.576Z,100346.97
2022-07-25T21:42:09.556Z,100350.88
2022-07-25T21:44:38.618Z,100352.31
2022-07-25T21:47:05.419Z,100356.50
2022-07-25T21:49:50.681Z,100366.88
2022-07-25T21:52:17.495Z,100361.28
2022-07-25T21:54:45.430Z,100363.81
2022-07-25T21:57:13.698Z,100369.41
2022-07-25T21:59:42.390Z,100374.44
2022-07-25T22:02:09.571Z,100370.78
2022-07-25T22:04:36.703Z,100375.56
2022-07-25T22:07:03.728Z,100374.44
2022-07-25T22:09:30.492Z,100380.34
2022-07-25T22:11:57.988Z,100383.16
2022-07-25T22:14:24.805Z,100391.28
2022-07-25T22:16:51.528Z,100391.28
2022-07-25T22:19:22.042Z,100391.84
2022-07-25T22:21:49.704Z,100398.00
2022-07-25T22:24:16.400Z,100390.44
2022-07-25T22:26:43.211Z,100395.69
2022-07-25T22:29:10.113Z,100397.66
2022-07-25T22:31:38.799Z,100399.34
2022-07-25T22:34:05.668Z,100399.66
2022-07-25T22:36:32.321Z,100395.47
2022-07-25T22:38:58.933Z,100403.03
2022-07-25T22:41:25.629Z,100401.31
2022-07-25T22:43:58.716Z,100401.03
2022-07-25T22:46:29.991Z,100405.75
2022-07-25T22:48:58.447Z,100413.63
2022-07-25T22:51:26.279Z,100417.28
2022-07-25T22:53:53.123Z,100419.75
2022-07-25T22:56:19.942Z,100416.97
2022-07-25T22:58:49.033Z,100414.78
2022-07-25T23:01:19.410Z,100423.50
2022-07-25T23:03:47.180Z,100418.16
2022-07-25T23:06:13.775Z,100427.34
2022-07-25T23:08:40.463Z,100415.81
2022-07-25T23:11:07.577Z,100428.13
2022-07-25T23:13:35.744Z,100416.94
2022-07-25T23:16:03.861Z,100427.00
2022-07-25T23:18:31.613Z,100429.84
2022-07-25T23:20:58.347Z,100429.56
2022-07-25T23:23:25.164Z,100436.84
2022-07-25T23:25:52.034Z,100433.22
2022-07-25T23:28:18.896Z,100428.75
2022-07-25T23:30:45.452Z,100435.44
2022-07-25T23:33:12.138Z,100433.16
2022-07-25T23:35:38.888Z,100432.03
2022-07-25T23:38:05.494Z,100438.50
2022-07-25T23:40:32.196Z,100435.41
2022-07-25T23:42:59.015Z,100427.28
2022-07-25T23:45:28.422Z,100445.44
2022-07-25T23:47:56.660Z,100442.13
2022-07-25T23:50:24.075Z,100451.59
2022-07-25T23:52:51.598Z,100443.41
2022-07-25T23:55:18.429Z,100441.78
2022-07-25T23:57:45.223Z,100443.16
